sensor_id;sensor_type;location;lat;lon;timestamp;P1;durP1;ratioP1;P2;durP2;ratioP2
74245;SDS011;62601;51.044;13.788;2023-04-19T00:00:41;17.83;;;15.02;;
74245;SDS011;62601;51.044;13.788;2023-04-19T00:03:01;16.98;;;15.18;;
74245;SDS011;62601;51.044;13.788;2023-04-19T00:05:21;18.13;;;14.40;;
74245;SDS011;62601;51.044;13.788;2023-04-19T00:07:41;16.85;;;14.40;;
74245;SDS011;62601;51.044;13.788;2023-04-19T00:10:01;16.75;;;14.68;;
74245;SDS011;62601;51.044;13.788;2023-04-19T00:12:22;14.48;;;12.90;;
74245;SDS011;62601;51.044;13.788;2023-04-19T00:14:42;15.48;;;12.25;;
74245;SDS011;62601;51.044;13.788;2023-04-19T00:17:02;15.60;;;12.82;;
74245;SDS011;62601;51.044;13.788;2023-04-19T00:19:22;15.88;;;13.25;;
74245;SDS011;62601;51.044;13.788;2023-04-19T00:21:42;19.20;;;13.32;;
74245;SDS011;62601;51.044;13.788;2023-04-19T00:24:02;15.45;;;11.35;;
74245;SDS011;62601;51.044;13.788;2023-04-19T00:26:22;11.82;;;10.52;;
74245;SDS011;62601;51.044;13.788;2023-04-19T00:28:42;13.00;;;10.98;;
74245;SDS011;62601;51.044;13.788;2023-04-19T00:31:02;12.50;;;9.90;;
74245;SDS011;62601;51.044;13.788;2023-04-19T00:33:22;14.80;;;10.32;;
74245;SDS011;62601;51.044;13.788;2023-04-19T00:35:43;12.43;;;10.52;;
74245;SDS011;62601;51.044;13.788;2023-04-19T00:38:03;12.90;;;9.65;;
74245;SDS011;62601;51.044;13.788;2023-04-19T00:40:23;12.20;;;9.38;;
74245;SDS011;62601;51.044;13.788;2023-04-19T00:42:43;10.57;;;8.85;;
74245;SDS011;62601;51.044;13.788;2023-04-19T00:45:03;11.23;;;9.43;;
74245;SDS011;62601;51.044;13.788;2023-04-19T00:47:23;9.25;;;8.35;;
74245;SDS011;62601;51.044;13.788;2023-04-19T00:49:43;12.57;;;10.10;;
74245;SDS011;62601;51.044;13.788;2023-04-19T00:52:04;10.35;;;8.85;;
74245;SDS011;62601;51.044;13.788;2023-04-19T00:54:24;10.95;;;9.52;;
74245;SDS011;62601;51.044;13.788;2023-04-19T00:56:44;11.07;;;9.35;;
74245;SDS011;62601;51.044;13.788;2023-04-19T00:59:04;10.20;;;9.07;;
74245;SDS011;62601;51.044;13.788;2023-04-19T01:01:25;12.82;;;8.25;;
74245;SDS011;62601;51.044;13.788;2023-04-19T01:03:45;9.88;;;8.85;;
74245;SDS011;62601;51.044;13.788;2023-04-19T01:06:05;8.77;;;7.70;;
74245;SDS011;62601;51.044;13.788;2023-04-19T01:08:25;10.55;;;7.63;;
74245;SDS011;62601;51.044;13.788;2023-04-19T01:10:45;10.32;;;8.85;;
74245;SDS011;62601;51.044;13.788;2023-04-19T01:13:05;9.25;;;8.00;;
74245;SDS011;62601;51.044;13.788;2023-04-19T01:15:26;8.57;;;6.80;;
74245;SDS011;62601;51.044;13.788;2023-04-19T01:17:46;10.13;;;7.72;;
74245;SDS011;62601;51.044;13.788;2023-04-19T01:20:06;7.88;;;7.05;;
74245;SDS011;62601;51.044;13.788;2023-04-19T01:22:26;14.02;;;9.05;;
74245;SDS011;62601;51.044;13.788;2023-04-19T01:24:46;15.70;;;11.15;;
74245;SDS011;62601;51.044;13.788;2023-04-19T01:27:06;13.00;;;10.77;;
74245;SDS011;62601;51.044;13.788;2023-04-19T01:29:27;8.20;;;7.40;;
74245;SDS011;62601;51.044;13.788;2023-04-19T01:31:47;9.00;;;7.38;;
74245;SDS011;62601;51.044;13.788;2023-04-19T01:34:07;10.90;;;8.35;;
74245;SDS011;62601;51.044;13.788;2023-04-19T01:36:27;8.50;;;7.57;;
74245;SDS011;62601;51.044;13.788;2023-04-19T01:38:48;13.23;;;7.53;;
74245;SDS011;62601;51.044;13.788;2023-04-19T01:41:08;8.02;;;7.20;;
74245;SDS011;62601;51.044;13.788;2023-04-19T01:43:28;9.82;;;7.15;;
74245;SDS011;62601;51.044;13.788;2023-04-19T01:45:48;11.25;;;7.82;;
74245;SDS011;62601;51.044;13.788;2023-04-19T01:48:09;8.85;;;8.05;;
74245;SDS011;62601;51.044;13.788;2023-04-19T01:50:29;9.60;;;7.13;;
74245;SDS011;62601;51.044;13.788;2023-04-19T01:52:49;14.30;;;8.60;;
74245;SDS011;62601;51.044;13.788;2023-04-19T01:55:09;11.50;;;8.15;;
74245;SDS011;62601;51.044;13.788;2023-04-19T01:57:29;8.35;;;7.50;;
74245;SDS011;62601;51.044;13.788;2023-04-19T01:59:49;11.32;;;7.80;;
74245;SDS011;62601;51.044;13.788;2023-04-19T02:02:09;11.73;;;8.40;;
74245;SDS011;62601;51.044;13.788;2023-04-19T02:04:29;10.82;;;8.38;;
74245;SDS011;62601;51.044;13.788;2023-04-19T02:06:52;8.68;;;7.50;;
74245;SDS011;62601;51.044;13.788;2023-04-19T02:09:12;10.88;;;8.40;;
74245;SDS011;62601;51.044;13.788;2023-04-19T02:11:32;9.32;;;8.30;;
74245;SDS011;62601;51.044;13.788;2023-04-19T02:13:52;13.95;;;10.55;;
74245;SDS011;62601;51.044;13.788;2023-04-19T02:16:12;10.70;;;8.15;;
74245;SDS011;62601;51.044;13.788;2023-04-19T02:18:33;12.90;;;7.88;;
74245;SDS011;62601;51.044;13.788;2023-04-19T02:20:53;12.02;;;8.85;;
74245;SDS011;62601;51.044;13.788;2023-04-19T02:23:13;10.38;;;8.45;;
74245;SDS011;62601;51.044;13.788;2023-04-19T02:25:33;9.60;;;8.38;;
74245;SDS011;62601;51.044;13.788;2023-04-19T02:27:53;12.18;;;8.95;;
74245;SDS011;62601;51.044;13.788;2023-04-19T02:30:13;12.55;;;8.75;;
74245;SDS011;62601;51.044;13.788;2023-04-19T02:32:33;10.38;;;8.43;;
74245;SDS011;62601;51.044;13.788;2023-04-19T02:34:53;13.02;;;8.45;;
74245;SDS011;62601;51.044;13.788;2023-04-19T02:37:13;12.15;;;8.25;;
74245;SDS011;62601;51.044;13.788;2023-04-19T02:39:34;10.18;;;8.20;;
74245;SDS011;62601;51.044;13.788;2023-04-19T02:41:54;12.23;;;8.30;;
74245;SDS011;62601;51.044;13.788;2023-04-19T02:44:14;11.38;;;8.50;;
74245;SDS011;62601;51.044;13.788;2023-04-19T02:46:34;10.00;;;8.43;;
74245;SDS011;62601;51.044;13.788;2023-04-19T02:48:54;14.38;;;8.98;;
74245;SDS011;62601;51.044;13.788;2023-04-19T02:51:15;12.00;;;7.88;;
74245;SDS011;62601;51.044;13.788;2023-04-19T02:53:35;11.70;;;9.80;;
74245;SDS011;62601;51.044;13.788;2023-04-19T02:55:55;10.95;;;8.93;;
74245;SDS011;62601;51.044;13.788;2023-04-19T02:58:15;12.25;;;9.07;;
74245;SDS011;62601;51.044;13.788;2023-04-19T03:00:35;14.63;;;8.38;;
74245;SDS011;62601;51.044;13.788;2023-04-19T03:02:55;13.82;;;8.73;;
74245;SDS011;62601;51.044;13.788;2023-04-19T03:05:15;14.15;;;9.10;;
74245;SDS011;62601;51.044;13.788;2023-04-19T03:07:36;11.25;;;9.20;;
74245;SDS011;62601;51.044;13.788;2023-04-19T03:09:56;11.07;;;9.05;;
74245;SDS011;62601;51.044;13.788;2023-04-19T03:12:16;12.02;;;8.60;;
74245;SDS011;62601;51.044;13.788;2023-04-19T03:14:36;11.45;;;9.02;;
74245;SDS011;62601;51.044;13.788;2023-04-19T03:16:56;12.45;;;9.65;;
74245;SDS011;62601;51.044;13.788;2023-04-19T03:19:16;16.25;;;10.63;;
74245;SDS011;62601;51.044;13.788;2023-04-19T03:21:36;13.48;;;10.20;;
74245;SDS011;62601;51.044;13.788;2023-04-19T03:23:56;14.07;;;11.45;;
74245;SDS011;62601;51.044;13.788;2023-04-19T03:26:16;14.75;;;10.50;;
74245;SDS011;62601;51.044;13.788;2023-04-19T03:28:36;14.13;;;11.52;;
74245;SDS011;62601;51.044;13.788;2023-04-19T03:30:56;15.00;;;11.68;;
74245;SDS011;62601;51.044;13.788;2023-04-19T03:33:17;12.88;;;11.50;;
74245;SDS011;62601;51.044;13.788;2023-04-19T03:35:37;15.50;;;11.10;;
74245;SDS011;62601;51.044;13.788;2023-04-19T03:37:57;14.10;;;11.93;;
74245;SDS011;62601;51.044;13.788;2023-04-19T03:40:17;14.52;;;11.60;;
74245;SDS011;62601;51.044;13.788;2023-04-19T03:42:37;13.45;;;11.27;;
74245;SDS011;62601;51.044;13.788;2023-04-19T03:44:57;14.15;;;11.73;;
74245;SDS011;62601;51.044;13.788;2023-04-19T03:47:17;14.77;;;13.15;;
74245;SDS011;62601;51.044;13.788;2023-04-19T03:49:37;17.67;;;13.52;;
74245;SDS011;62601;51.044;13.788;2023-04-19T03:51:57;17.65;;;12.50;;
74245;SDS011;62601;51.044;13.788;2023-04-19T03:54:18;13.65;;;12.13;;
74245;SDS011;62601;51.044;13.788;2023-04-19T03:56:38;16.80;;;13.35;;
74245;SDS011;62601;51.044;13.788;2023-04-19T03:58:58;15.55;;;12.15;;
74245;SDS011;62601;51.044;13.788;2023-04-19T04:01:18;16.40;;;12.77;;
74245;SDS011;62601;51.044;13.788;2023-04-19T04:03:39;15.20;;;13.48;;
74245;SDS011;62601;51.044;13.788;2023-04-19T04:05:59;16.48;;;12.85;;
74245;SDS011;62601;51.044;13.788;2023-04-19T04:08:19;15.00;;;13.13;;
74245;SDS011;62601;51.044;13.788;2023-04-19T04:10:39;18.33;;;13.00;;
74245;SDS011;62601;51.044;13.788;2023-04-19T04:12:59;15.65;;;13.20;;
74245;SDS011;62601;51.044;13.788;2023-04-19T04:15:19;14.98;;;12.45;;
74245;SDS011;62601;51.044;13.788;2023-04-19T04:17:39;18.63;;;15.57;;
74245;SDS011;62601;51.044;13.788;2023-04-19T04:19:59;16.73;;;13.02;;
74245;SDS011;62601;51.044;13.788;2023-04-19T04:22:19;13.73;;;11.95;;
74245;SDS011;62601;51.044;13.788;2023-04-19T04:24:40;18.23;;;11.05;;
74245;SDS011;62601;51.044;13.788;2023-04-19T04:27:00;12.55;;;10.50;;
74245;SDS011;62601;51.044;13.788;2023-04-19T04:29:20;15.18;;;11.30;;
74245;SDS011;62601;51.044;13.788;2023-04-19T04:31:40;11.30;;;9.82;;
74245;SDS011;62601;51.044;13.788;2023-04-19T04:34:01;13.68;;;10.70;;
74245;SDS011;62601;51.044;13.788;2023-04-19T04:36:21;14.75;;;10.65;;
74245;SDS011;62601;51.044;13.788;2023-04-19T04:38:41;14.57;;;10.13;;
74245;SDS011;62601;51.044;13.788;2023-04-19T04:41:01;15.25;;;9.77;;
74245;SDS011;62601;51.044;13.788;2023-04-19T04:43:21;13.57;;;9.20;;
74245;SDS011;62601;51.044;13.788;2023-04-19T04:45:42;11.13;;;8.52;;
74245;SDS011;62601;51.044;13.788;2023-04-19T04:48:02;11.55;;;8.68;;
74245;SDS011;62601;51.044;13.788;2023-04-19T04:50:22;14.20;;;7.25;;
74245;SDS011;62601;51.044;13.788;2023-04-19T04:52:42;11.57;;;8.13;;
74245;SDS011;62601;51.044;13.788;2023-04-19T04:55:02;10.20;;;8.23;;
74245;SDS011;62601;51.044;13.788;2023-04-19T04:57:22;12.38;;;7.25;;
74245;SDS011;62601;51.044;13.788;2023-04-19T04:59:42;11.23;;;6.82;;
74245;SDS011;62601;51.044;13.788;2023-04-19T05:02:02;9.15;;;6.97;;
74245;SDS011;62601;51.044;13.788;2023-04-19T05:04:23;8.27;;;6.25;;
74245;SDS011;62601;51.044;13.788;2023-04-19T05:06:43;14.02;;;10.85;;
74245;SDS011;62601;51.044;13.788;2023-04-19T05:09:03;10.23;;;7.10;;
74245;SDS011;62601;51.044;13.788;2023-04-19T05:11:23;8.90;;;6.55;;
74245;SDS011;62601;51.044;13.788;2023-04-19T05:13:43;10.00;;;6.63;;
74245;SDS011;62601;51.044;13.788;2023-04-19T05:16:03;12.82;;;9.57;;
74245;SDS011;62601;51.044;13.788;2023-04-19T05:18:23;9.60;;;7.10;;
74245;SDS011;62601;51.044;13.788;2023-04-19T05:20:43;7.53;;;5.90;;
74245;SDS011;62601;51.044;13.788;2023-04-19T05:23:03;8.52;;;6.35;;
74245;SDS011;62601;51.044;13.788;2023-04-19T05:25:23;12.15;;;5.95;;
74245;SDS011;62601;51.044;13.788;2023-04-19T05:27:44;7.13;;;5.88;;
74245;SDS011;62601;51.044;13.788;2023-04-19T05:30:04;12.48;;;6.00;;
74245;SDS011;62601;51.044;13.788;2023-04-19T05:32:25;6.95;;;5.25;;
74245;SDS011;62601;51.044;13.788;2023-04-19T05:34:45;6.72;;;5.50;;
74245;SDS011;62601;51.044;13.788;2023-04-19T05:37:05;8.20;;;5.93;;
74245;SDS011;62601;51.044;13.788;2023-04-19T05:39:25;5.05;;;4.55;;
74245;SDS011;62601;51.044;13.788;2023-04-19T05:41:45;6.70;;;5.43;;
74245;SDS011;62601;51.044;13.788;2023-04-19T05:44:05;11.85;;;5.60;;
74245;SDS011;62601;51.044;13.788;2023-04-19T05:46:26;5.90;;;4.75;;
74245;SDS011;62601;51.044;13.788;2023-04-19T05:48:46;4.65;;;4.20;;
74245;SDS011;62601;51.044;13.788;2023-04-19T05:51:06;6.25;;;4.80;;
74245;SDS011;62601;51.044;13.788;2023-04-19T05:53:26;5.90;;;4.72;;
74245;SDS011;62601;51.044;13.788;2023-04-19T05:55:46;5.75;;;4.20;;
74245;SDS011;62601;51.044;13.788;2023-04-19T05:58:06;8.30;;;4.95;;
74245;SDS011;62601;51.044;13.788;2023-04-19T06:00:26;6.65;;;4.30;;
74245;SDS011;62601;51.044;13.788;2023-04-19T06:02:46;5.97;;;4.15;;
74245;SDS011;62601;51.044;13.788;2023-04-19T06:05:06;5.32;;;4.40;;
74245;SDS011;62601;51.044;13.788;2023-04-19T06:07:26;4.78;;;4.15;;
74245;SDS011;62601;51.044;13.788;2023-04-19T06:09:47;4.90;;;3.72;;
74245;SDS011;62601;51.044;13.788;2023-04-19T06:12:07;4.13;;;3.65;;
74245;SDS011;62601;51.044;13.788;2023-04-19T06:14:27;4.88;;;3.47;;
74245;SDS011;62601;51.044;13.788;2023-04-19T06:16:47;4.38;;;3.50;;
74245;SDS011;62601;51.044;13.788;2023-04-19T06:19:07;4.45;;;2.92;;
74245;SDS011;62601;51.044;13.788;2023-04-19T06:21:30;4.28;;;3.20;;
74245;SDS011;62601;51.044;13.788;2023-04-19T06:23:50;10.68;;;5.15;;
74245;SDS011;62601;51.044;13.788;2023-04-19T06:26:10;5.85;;;3.63;;
74245;SDS011;62601;51.044;13.788;2023-04-19T06:28:30;3.72;;;3.35;;
74245;SDS011;62601;51.044;13.788;2023-04-19T06:30:50;4.00;;;3.10;;
74245;SDS011;62601;51.044;13.788;2023-04-19T06:33:10;3.63;;;3.33;;
74245;SDS011;62601;51.044;13.788;2023-04-19T06:35:31;4.82;;;2.60;;
74245;SDS011;62601;51.044;13.788;2023-04-19T06:37:51;10.65;;;3.55;;
74245;SDS011;62601;51.044;13.788;2023-04-19T06:40:11;4.40;;;3.40;;
74245;SDS011;62601;51.044;13.788;2023-04-19T06:42:31;4.93;;;2.70;;
74245;SDS011;62601;51.044;13.788;2023-04-19T06:44:51;3.95;;;2.70;;
74245;SDS011;62601;51.044;13.788;2023-04-19T06:47:11;4.53;;;3.42;;
74245;SDS011;62601;51.044;13.788;2023-04-19T06:49:32;11.85;;;8.68;;
74245;SDS011;62601;51.044;13.788;2023-04-19T06:51:52;6.28;;;4.55;;
74245;SDS011;62601;51.044;13.788;2023-04-19T06:54:12;4.43;;;3.90;;
74245;SDS011;62601;51.044;13.788;2023-04-19T06:56:42;3.97;;;3.00;;
74245;SDS011;62601;51.044;13.788;2023-04-19T06:59:02;3.38;;;2.83;;
74245;SDS011;62601;51.044;13.788;2023-04-19T07:01:22;3.55;;;2.75;;
74245;SDS011;62601;51.044;13.788;2023-04-19T07:03:44;3.70;;;3.10;;
74245;SDS011;62601;51.044;13.788;2023-04-19T07:06:04;4.70;;;3.10;;
74245;SDS011;62601;51.044;13.788;2023-04-19T07:08:25;4.25;;;3.13;;
74245;SDS011;62601;51.044;13.788;2023-04-19T07:10:45;4.25;;;2.88;;
74245;SDS011;62601;51.044;13.788;2023-04-19T07:13:05;4.97;;;3.03;;
74245;SDS011;62601;51.044;13.788;2023-04-19T07:15:26;5.05;;;3.28;;
74245;SDS011;62601;51.044;13.788;2023-04-19T07:17:46;4.13;;;3.25;;
74245;SDS011;62601;51.044;13.788;2023-04-19T07:20:06;6.47;;;3.20;;
74245;SDS011;62601;51.044;13.788;2023-04-19T07:22:27;3.20;;;2.90;;
74245;SDS011;62601;51.044;13.788;2023-04-19T07:24:47;5.60;;;2.63;;
74245;SDS011;62601;51.044;13.788;2023-04-19T07:27:07;3.40;;;2.88;;
74245;SDS011;62601;51.044;13.788;2023-04-19T07:29:27;3.08;;;2.78;;
74245;SDS011;62601;51.044;13.788;2023-04-19T07:31:47;4.50;;;2.53;;
74245;SDS011;62601;51.044;13.788;2023-04-19T07:34:07;3.40;;;2.58;;
74245;SDS011;62601;51.044;13.788;2023-04-19T07:36:27;4.50;;;3.20;;
74245;SDS011;62601;51.044;13.788;2023-04-19T07:38:47;3.20;;;2.90;;
74245;SDS011;62601;51.044;13.788;2023-04-19T07:41:07;6.45;;;3.17;;
74245;SDS011;62601;51.044;13.788;2023-04-19T07:43:28;3.08;;;2.60;;
74245;SDS011;62601;51.044;13.788;2023-04-19T07:45:48;5.30;;;2.80;;
74245;SDS011;62601;51.044;13.788;2023-04-19T07:48:09;4.75;;;3.17;;
74245;SDS011;62601;51.044;13.788;2023-04-19T07:50:29;5.00;;;3.00;;
74245;SDS011;62601;51.044;13.788;2023-04-19T07:52:49;7.55;;;5.30;;
74245;SDS011;62601;51.044;13.788;2023-04-19T07:55:09;6.13;;;4.45;;
74245;SDS011;62601;51.044;13.788;2023-04-19T07:57:29;9.88;;;3.20;;
74245;SDS011;62601;51.044;13.788;2023-04-19T07:59:49;6.65;;;3.15;;
74245;SDS011;62601;51.044;13.788;2023-04-19T08:02:09;4.18;;;2.78;;
74245;SDS011;62601;51.044;13.788;2023-04-19T08:04:29;2.85;;;2.58;;
74245;SDS011;62601;51.044;13.788;2023-04-19T08:06:49;3.08;;;2.85;;
74245;SDS011;62601;51.044;13.788;2023-04-19T08:09:09;4.97;;;2.80;;
74245;SDS011;62601;51.044;13.788;2023-04-19T08:11:29;3.53;;;3.15;;
74245;SDS011;62601;51.044;13.788;2023-04-19T08:13:50;3.80;;;2.97;;
74245;SDS011;62601;51.044;13.788;2023-04-19T08:16:10;3.78;;;3.30;;
74245;SDS011;62601;51.044;13.788;2023-04-19T08:18:30;4.60;;;3.03;;
74245;SDS011;62601;51.044;13.788;2023-04-19T08:20:50;3.85;;;3.40;;
74245;SDS011;62601;51.044;13.788;2023-04-19T08:23:10;5.63;;;3.15;;
74245;SDS011;62601;51.044;13.788;2023-04-19T08:25:30;6.40;;;3.88;;
74245;SDS011;62601;51.044;13.788;2023-04-19T08:27:51;5.75;;;2.65;;
74245;SDS011;62601;51.044;13.788;2023-04-19T08:30:11;6.95;;;4.47;;
74245;SDS011;62601;51.044;13.788;2023-04-19T08:32:31;5.18;;;4.68;;
74245;SDS011;62601;51.044;13.788;2023-04-19T08:34:51;3.90;;;2.95;;
74245;SDS011;62601;51.044;13.788;2023-04-19T08:37:11;4.57;;;3.65;;
74245;SDS011;62601;51.044;13.788;2023-04-19T08:39:32;4.93;;;2.67;;
74245;SDS011;62601;51.044;13.788;2023-04-19T08:41:52;5.72;;;3.33;;
74245;SDS011;62601;51.044;13.788;2023-04-19T08:44:14;5.75;;;5.15;;
74245;SDS011;62601;51.044;13.788;2023-04-19T08:46:35;4.43;;;3.15;;
74245;SDS011;62601;51.044;13.788;2023-04-19T08:48:55;3.40;;;2.72;;
74245;SDS011;62601;51.044;13.788;2023-04-19T08:51:18;3.90;;;3.10;;
74245;SDS011;62601;51.044;13.788;2023-04-19T08:53:38;5.00;;;2.97;;
74245;SDS011;62601;51.044;13.788;2023-04-19T08:55:59;4.47;;;3.63;;
74245;SDS011;62601;51.044;13.788;2023-04-19T08:58:19;5.07;;;3.70;;
74245;SDS011;62601;51.044;13.788;2023-04-19T09:00:39;8.45;;;3.50;;
74245;SDS011;62601;51.044;13.788;2023-04-19T09:03:00;4.95;;;3.92;;
74245;SDS011;62601;51.044;13.788;2023-04-19T09:05:20;4.18;;;3.20;;
74245;SDS011;62601;51.044;13.788;2023-04-19T09:07:40;3.90;;;3.50;;
74245;SDS011;62601;51.044;13.788;2023-04-19T09:10:03;4.70;;;3.95;;
74245;SDS011;62601;51.044;13.788;2023-04-19T09:12:23;3.65;;;3.20;;
74245;SDS011;62601;51.044;13.788;2023-04-19T09:14:44;4.30;;;3.42;;
74245;SDS011;62601;51.044;13.788;2023-04-19T09:17:15;6.57;;;4.10;;
74245;SDS011;62601;51.044;13.788;2023-04-19T09:19:45;3.85;;;3.45;;
74245;SDS011;62601;51.044;13.788;2023-04-19T09:22:11;6.32;;;3.63;;
74245;SDS011;62601;51.044;13.788;2023-04-19T09:24:38;6.25;;;3.97;;
74245;SDS011;62601;51.044;13.788;2023-04-19T09:26:58;5.25;;;4.70;;
74245;SDS011;62601;51.044;13.788;2023-04-19T09:29:18;5.70;;;4.00;;
74245;SDS011;62601;51.044;13.788;2023-04-19T09:31:38;6.45;;;4.78;;
74245;SDS011;62601;51.044;13.788;2023-04-19T09:34:17;5.18;;;4.03;;
74245;SDS011;62601;51.044;13.788;2023-04-19T09:36:37;5.25;;;3.60;;
74245;SDS011;62601;51.044;13.788;2023-04-19T09:38:58;4.97;;;3.58;;
74245;SDS011;62601;51.044;13.788;2023-04-19T09:41:18;5.38;;;3.50;;
74245;SDS011;62601;51.044;13.788;2023-04-19T09:43:38;4.13;;;3.70;;
74245;SDS011;62601;51.044;13.788;2023-04-19T09:45:58;5.80;;;4.20;;
74245;SDS011;62601;51.044;13.788;2023-04-19T09:48:18;5.90;;;4.38;;
74245;SDS011;62601;51.044;13.788;2023-04-19T09:51:11;4.90;;;4.30;;
74245;SDS011;62601;51.044;13.788;2023-04-19T09:53:25;4.63;;;4.00;;
74245;SDS011;62601;51.044;13.788;2023-04-19T09:55:46;5.15;;;3.47;;
74245;SDS011;62601;51.044;13.788;2023-04-19T09:58:06;4.18;;;3.78;;
74245;SDS011;62601;51.044;13.788;2023-04-19T10:00:26;5.40;;;4.13;;
74245;SDS011;62601;51.044;13.788;2023-04-19T10:02:46;4.05;;;3.65;;
74245;SDS011;62601;51.044;13.788;2023-04-19T10:05:07;5.25;;;4.00;;
74245;SDS011;62601;51.044;13.788;2023-04-19T10:07:27;5.28;;;4.00;;
74245;SDS011;62601;51.044;13.788;2023-04-19T10:09:50;8.30;;;5.20;;
74245;SDS011;62601;51.044;13.788;2023-04-19T10:12:11;5.68;;;3.90;;
74245;SDS011;62601;51.044;13.788;2023-04-19T10:14:34;9.95;;;4.00;;
74245;SDS011;62601;51.044;13.788;2023-04-19T10:16:55;5.30;;;4.00;;
74245;SDS011;62601;51.044;13.788;2023-04-19T10:19:15;4.72;;;3.70;;
74245;SDS011;62601;51.044;13.788;2023-04-19T10:21:36;4.45;;;3.85;;
74245;SDS011;62601;51.044;13.788;2023-04-19T10:23:56;5.07;;;3.50;;
74245;SDS011;62601;51.044;13.788;2023-04-19T10:26:17;5.65;;;3.88;;
74245;SDS011;62601;51.044;13.788;2023-04-19T10:28:37;8.48;;;4.28;;
74245;SDS011;62601;51.044;13.788;2023-04-19T10:31:00;5.15;;;3.85;;
74245;SDS011;62601;51.044;13.788;2023-04-19T10:33:25;6.15;;;4.25;;
74245;SDS011;62601;51.044;13.788;2023-04-19T10:35:45;5.32;;;3.13;;
74245;SDS011;62601;51.044;13.788;2023-04-19T10:38:06;6.35;;;3.75;;
74245;SDS011;62601;51.044;13.788;2023-04-19T10:40:52;11.32;;;5.60;;
74245;SDS011;62601;51.044;13.788;2023-04-19T10:45:30;4.35;;;3.80;;
74245;SDS011;62601;51.044;13.788;2023-04-19T10:47:50;5.45;;;3.50;;
74245;SDS011;62601;51.044;13.788;2023-04-19T10:50:10;4.28;;;3.75;;
74245;SDS011;62601;51.044;13.788;2023-04-19T10:52:31;6.00;;;3.80;;
74245;SDS011;62601;51.044;13.788;2023-04-19T10:54:54;4.95;;;3.83;;
74245;SDS011;62601;51.044;13.788;2023-04-19T10:57:14;5.70;;;4.60;;
74245;SDS011;62601;51.044;13.788;2023-04-19T10:59:35;4.70;;;3.67;;
74245;SDS011;62601;51.044;13.788;2023-04-19T11:01:56;6.07;;;3.92;;
74245;SDS011;62601;51.044;13.788;2023-04-19T11:04:21;4.35;;;3.50;;
74245;SDS011;62601;51.044;13.788;2023-04-19T11:09:11;7.65;;;4.70;;
74245;SDS011;62601;51.044;13.788;2023-04-19T11:11:40;7.18;;;3.75;;
74245;SDS011;62601;51.044;13.788;2023-04-19T11:14:00;4.50;;;4.03;;
74245;SDS011;62601;51.044;13.788;2023-04-19T11:16:21;4.78;;;4.00;;
74245;SDS011;62601;51.044;13.788;2023-04-19T11:18:42;5.75;;;3.53;;
74245;SDS011;62601;51.044;13.788;2023-04-19T11:21:03;6.32;;;3.42;;
74245;SDS011;62601;51.044;13.788;2023-04-19T11:23:23;3.75;;;3.45;;
74245;SDS011;62601;51.044;13.788;2023-04-19T11:25:43;4.50;;;3.60;;
74245;SDS011;62601;51.044;13.788;2023-04-19T11:28:04;6.88;;;3.40;;
74245;SDS011;62601;51.044;13.788;2023-04-19T11:30:27;4.43;;;3.72;;
74245;SDS011;62601;51.044;13.788;2023-04-19T11:32:48;5.72;;;3.35;;
74245;SDS011;62601;51.044;13.788;2023-04-19T11:35:08;3.55;;;2.95;;
74245;SDS011;62601;51.044;13.788;2023-04-19T11:37:35;5.22;;;3.35;;
74245;SDS011;62601;51.044;13.788;2023-04-19T11:39:55;6.18;;;3.50;;
74245;SDS011;62601;51.044;13.788;2023-04-19T11:42:19;5.25;;;3.58;;
74245;SDS011;62601;51.044;13.788;2023-04-19T11:44:39;5.65;;;4.13;;
74245;SDS011;62601;51.044;13.788;2023-04-19T11:46:59;4.00;;;3.70;;
74245;SDS011;62601;51.044;13.788;2023-04-19T11:49:29;8.15;;;6.65;;
74245;SDS011;62601;51.044;13.788;2023-04-19T11:51:53;5.63;;;3.85;;
74245;SDS011;62601;51.044;13.788;2023-04-19T11:54:13;3.85;;;3.45;;
74245;SDS011;62601;51.044;13.788;2023-04-19T11:56:34;4.03;;;3.13;;
74245;SDS011;62601;51.044;13.788;2023-04-19T11:58:56;3.35;;;3.05;;
74245;SDS011;62601;51.044;13.788;2023-04-19T12:01:20;3.45;;;3.15;;
74245;SDS011;62601;51.044;13.788;2023-04-19T12:03:44;3.28;;;2.85;;
74245;SDS011;62601;51.044;13.788;2023-04-19T12:06:05;6.78;;;3.08;;
74245;SDS011;62601;51.044;13.788;2023-04-19T12:08:28;4.30;;;2.72;;
74245;SDS011;62601;51.044;13.788;2023-04-19T12:10:55;3.30;;;3.00;;
74245;SDS011;62601;51.044;13.788;2023-04-19T12:13:16;4.75;;;3.17;;
74245;SDS011;62601;51.044;13.788;2023-04-19T12:15:40;3.85;;;3.42;;
74245;SDS011;62601;51.044;13.788;2023-04-19T12:18:00;3.33;;;3.03;;
74245;SDS011;62601;51.044;13.788;2023-04-19T12:20:34;4.22;;;3.35;;
74245;SDS011;62601;51.044;13.788;2023-04-19T12:22:54;4.60;;;3.47;;
74245;SDS011;62601;51.044;13.788;2023-04-19T12:25:14;5.18;;;3.60;;
74245;SDS011;62601;51.044;13.788;2023-04-19T12:27:35;5.68;;;5.05;;
74245;SDS011;62601;51.044;13.788;2023-04-19T12:29:55;10.35;;;7.78;;
74245;SDS011;62601;51.044;13.788;2023-04-19T12:32:15;6.70;;;4.93;;
74245;SDS011;62601;51.044;13.788;2023-04-19T12:34:35;5.40;;;4.75;;
74245;SDS011;62601;51.044;13.788;2023-04-19T12:36:55;5.22;;;4.00;;
74245;SDS011;62601;51.044;13.788;2023-04-19T12:39:15;5.85;;;3.50;;
74245;SDS011;62601;51.044;13.788;2023-04-19T12:41:35;7.32;;;4.25;;
74245;SDS011;62601;51.044;13.788;2023-04-19T12:43:55;3.30;;;3.00;;
74245;SDS011;62601;51.044;13.788;2023-04-19T12:46:16;5.15;;;3.67;;
74245;SDS011;62601;51.044;13.788;2023-04-19T12:48:36;4.43;;;3.22;;
74245;SDS011;62601;51.044;13.788;2023-04-19T12:50:56;4.78;;;4.18;;
74245;SDS011;62601;51.044;13.788;2023-04-19T12:53:16;4.75;;;4.10;;
74245;SDS011;62601;51.044;13.788;2023-04-19T12:55:36;4.72;;;3.78;;
74245;SDS011;62601;51.044;13.788;2023-04-19T12:57:56;4.72;;;3.70;;
74245;SDS011;62601;51.044;13.788;2023-04-19T13:00:16;7.68;;;4.10;;
74245;SDS011;62601;51.044;13.788;2023-04-19T13:02:36;6.15;;;4.28;;
74245;SDS011;62601;51.044;13.788;2023-04-19T13:04:56;6.82;;;3.65;;
74245;SDS011;62601;51.044;13.788;2023-04-19T13:07:17;6.95;;;3.83;;
74245;SDS011;62601;51.044;13.788;2023-04-19T13:09:37;5.13;;;3.37;;
74245;SDS011;62601;51.044;13.788;2023-04-19T13:11:57;5.63;;;4.53;;
74245;SDS011;62601;51.044;13.788;2023-04-19T13:14:17;5.47;;;4.30;;
74245;SDS011;62601;51.044;13.788;2023-04-19T13:16:37;6.38;;;4.28;;
74245;SDS011;62601;51.044;13.788;2023-04-19T13:18:57;7.63;;;4.90;;
74245;SDS011;62601;51.044;13.788;2023-04-19T13:21:17;8.00;;;5.53;;
74245;SDS011;62601;51.044;13.788;2023-04-19T13:23:37;6.43;;;4.13;;
74245;SDS011;62601;51.044;13.788;2023-04-19T13:25:57;4.10;;;3.37;;
74245;SDS011;62601;51.044;13.788;2023-04-19T13:28:18;4.80;;;3.53;;
74245;SDS011;62601;51.044;13.788;2023-04-19T13:30:38;5.00;;;4.40;;
74245;SDS011;62601;51.044;13.788;2023-04-19T13:32:58;6.33;;;4.60;;
74245;SDS011;62601;51.044;13.788;2023-04-19T13:35:18;5.30;;;3.77;;
74245;SDS011;62601;51.044;13.788;2023-04-19T13:37:38;4.90;;;4.00;;
74245;SDS011;62601;51.044;13.788;2023-04-19T13:39:59;3.90;;;3.50;;
74245;SDS011;62601;51.044;13.788;2023-04-19T13:42:19;7.50;;;4.50;;
74245;SDS011;62601;51.044;13.788;2023-04-19T13:44:39;5.63;;;3.90;;
74245;SDS011;62601;51.044;13.788;2023-04-19T13:46:59;4.83;;;4.20;;
74245;SDS011;62601;51.044;13.788;2023-04-19T13:49:19;9.03;;;4.60;;
74245;SDS011;62601;51.044;13.788;2023-04-19T13:51:39;8.30;;;4.30;;
74245;SDS011;62601;51.044;13.788;2023-04-19T13:53:59;6.53;;;4.37;;